sensor_id;sensor_type;location;lat;lon;timestamp;pressure;altitude;pressure_sealevel;temperature;humidity
58295;BME280;45705;55.592;37.460;2023-02-17T00:01:25;99888.94;;;-6.79;91.81
58295;BME280;45705;55.592;37.460;2023-02-17T00:03:52;99888.53;;;-6.67;91.34
58295;BME280;45705;55.592;37.460;2023-02-17T00:06:20;99894.31;;;-6.87;92.91
58295;BME280;45705;55.592;37.460;2023-02-17T00:08:47;99891.84;;;-6.88;93.52
58295;BME280;45705;55.592;37.460;2023-02-17T00:11:13;99894.53;;;-6.74;93.74
58295;BME280;45705;55.592;37.460;2023-02-17T00:13:39;99897.63;;;-6.47;92.90
58295;BME280;45705;55.592;37.460;2023-02-17T00:16:10;99891.91;;;-6.36;91.88
58295;BME280;45705;55.592;37.460;2023-02-17T00:18:37;99889.22;;;-6.50;91.54
58295;BME280;45705;55.592;37.460;2023-02-17T00:21:22;99894.38;;;-6.57;91.84
58295;BME280;45705;55.592;37.460;2023-02-17T00:23:49;99880.34;;;-6.72;91.93
58295;BME280;45705;55.592;37.460;2023-02-17T00:26:16;99884.91;;;-6.66;91.10
58295;BME280;45705;55.592;37.460;2023-02-17T00:28:42;99888.06;;;-6.94;92.27
58295;BME280;45705;55.592;37.460;2023-02-17T00:34:03;99885.22;;;-7.07;92.79
58295;BME280;45705;55.592;37.460;2023-02-17T00:36:29;99888.66;;;-7.30;93.57
58295;BME280;45705;55.592;37.460;2023-02-17T00:38:56;99889.56;;;-7.46;95.79
58295;BME280;45705;55.592;37.460;2023-02-17T00:41:23;99882.19;;;-7.27;95.40
58295;BME280;45705;55.592;37.460;2023-02-17T00:43:49;99875.38;;;-7.22;96.64
58295;BME280;45705;55.592;37.460;2023-02-17T00:46:16;99873.56;;;-7.53;96.67
58295;BME280;45705;55.592;37.460;2023-02-17T00:48:44;99881.91;;;-7.72;97.09
58295;BME280;45705;55.592;37.460;2023-02-17T00:51:11;99872.81;;;-7.61;97.50
58295;BME280;45705;55.592;37.460;2023-02-17T00:53:37;99870.06;;;-7.76;97.13
58295;BME280;45705;55.592;37.460;2023-02-17T00:56:03;99874.03;;;-7.80;97.40
58295;BME280;45705;55.592;37.460;2023-02-17T00:58:29;99874.06;;;-7.88;97.57
58295;BME280;45705;55.592;37.460;2023-02-17T01:00:55;99870.69;;;-7.74;98.23
58295;BME280;45705;55.592;37.460;2023-02-17T01:03:22;99876.34;;;-7.77;97.31
58295;BME280;45705;55.592;37.460;2023-02-17T01:05:50;99873.66;;;-7.69;97.78
58295;BME280;45705;55.592;37.460;2023-02-17T01:08:17;99866.00;;;-7.56;96.87
58295;BME280;45705;55.592;37.460;2023-02-17T01:10:45;99867.16;;;-7.27;95.54
58295;BME280;45705;55.592;37.460;2023-02-17T01:13:12;99864.09;;;-7.16;94.65
58295;BME280;45705;55.592;37.460;2023-02-17T01:15:40;99866.09;;;-7.18;93.73
58295;BME280;45705;55.592;37.460;2023-02-17T01:18:06;99865.69;;;-7.29;92.49
58295;BME280;45705;55.592;37.460;2023-02-17T01:20:39;99873.56;;;-7.21;92.98
58295;BME280;45705;55.592;37.460;2023-02-17T01:23:06;99872.44;;;-7.27;93.56
58295;BME280;45705;55.592;37.460;2023-02-17T01:25:39;99856.47;;;-7.10;93.18
58295;BME280;45705;55.592;37.460;2023-02-17T01:28:07;99853.72;;;-7.17;93.65
58295;BME280;45705;55.592;37.460;2023-02-17T01:30:33;99864.94;;;-7.15;93.89
58295;BME280;45705;55.592;37.460;2023-02-17T01:32:59;99866.41;;;-7.13;94.76
58295;BME280;45705;55.592;37.460;2023-02-17T01:35:25;99861.53;;;-6.78;92.61
58295;BME280;45705;55.592;37.460;2023-02-17T01:37:50;99850.56;;;-6.75;91.55
58295;BME280;45705;55.592;37.460;2023-02-17T01:40:16;99855.19;;;-6.68;92.22
58295;BME280;45705;55.592;37.460;2023-02-17T01:42:42;99837.69;;;-6.40;90.31
58295;BME280;45705;55.592;37.460;2023-02-17T01:47:45;99848.81;;;-6.44;89.26
58295;BME280;45705;55.592;37.460;2023-02-17T01:50:14;99847.75;;;-6.35;87.84
58295;BME280;45705;55.592;37.460;2023-02-17T01:52:40;99849.88;;;-6.68;88.83
58295;BME280;45705;55.592;37.460;2023-02-17T01:55:11;99850.38;;;-6.88;90.18
58295;BME280;45705;55.592;37.460;2023-02-17T01:57:39;99827.00;;;-6.99;90.33
58295;BME280;45705;55.592;37.460;2023-02-17T02:00:07;99851.72;;;-6.54;90.60
58295;BME280;45705;55.592;37.460;2023-02-17T02:02:43;99859.38;;;-6.59;88.62
58295;BME280;45705;55.592;37.460;2023-02-17T02:05:12;99859.03;;;-6.56;88.96
58295;BME280;45705;55.592;37.460;2023-02-17T02:07:40;99859.53;;;-6.08;87.44
58295;BME280;45705;55.592;37.460;2023-02-17T02:10:09;99859.03;;;-6.56;87.67
58295;BME280;45705;55.592;37.460;2023-02-17T02:12:37;99854.72;;;-6.57;88.83
58295;BME280;45705;55.592;37.460;2023-02-17T02:33:58;99842.16;;;-6.55;89.02
58295;BME280;45705;55.592;37.460;2023-02-17T02:36:37;99863.19;;;-6.24;88.82
58295;BME280;45705;55.592;37.460;2023-02-17T02:39:17;99856.34;;;-6.18;88.82
58295;BME280;45705;55.592;37.460;2023-02-17T02:42:00;99851.94;;;-6.11;87.45
58295;BME280;45705;55.592;37.460;2023-02-17T02:44:28;99853.06;;;-6.20;88.98
58295;BME280;45705;55.592;37.460;2023-02-17T02:46:58;99855.25;;;-6.24;86.95
58295;BME280;45705;55.592;37.460;2023-02-17T02:49:24;99853.69;;;-6.33;87.22
58295;BME280;45705;55.592;37.460;2023-02-17T02:51:54;99852.13;;;-6.27;86.97
58295;BME280;45705;55.592;37.460;2023-02-17T02:55:00;99853.56;;;-6.40;88.22
58295;BME280;45705;55.592;37.460;2023-02-17T03:05:17;99861.09;;;-6.66;89.13
58295;BME280;45705;55.592;37.460;2023-02-17T03:07:51;99858.00;;;-6.70;89.56
58295;BME280;45705;55.592;37.460;2023-02-17T03:10:20;99851.03;;;-6.86;89.75
58295;BME280;45705;55.592;37.460;2023-02-17T03:12:46;99858.25;;;-6.80;91.34
58295;BME280;45705;55.592;37.460;2023-02-17T03:15:19;99862.59;;;-7.10;92.72
58295;BME280;45705;55.592;37.460;2023-02-17T03:17:47;99864.50;;;-7.27;94.11
58295;BME280;45705;55.592;37.460;2023-02-17T03:20:13;99856.13;;;-7.30;95.15
58295;BME280;45705;55.592;37.460;2023-02-17T03:22:44;99858.56;;;-7.29;95.65
58295;BME280;45705;55.592;37.460;2023-02-17T03:25:13;99860.41;;;-7.61;96.83
58295;BME280;45705;55.592;37.460;2023-02-17T03:27:40;99847.38;;;-7.62;97.72
58295;BME280;45705;55.592;37.460;2023-02-17T03:30:07;99851.72;;;-7.69;99.33
58295;BME280;45705;55.592;37.460;2023-02-17T03:32:33;99846.28;;;-7.76;99.09
58295;BME280;45705;55.592;37.460;2023-02-17T03:34:59;99858.75;;;-7.62;99.39
58295;BME280;45705;55.592;37.460;2023-02-17T03:37:24;99858.47;;;-7.67;99.18
58295;BME280;45705;55.592;37.460;2023-02-17T03:39:50;99860.75;;;-7.64;99.75
58295;BME280;45705;55.592;37.460;2023-02-17T03:42:16;99862.75;;;-7.66;99.61
58295;BME280;45705;55.592;37.460;2023-02-17T03:44:42;99858.75;;;-7.62;99.82
58295;BME280;45705;55.592;37.460;2023-02-17T03:47:07;99856.78;;;-7.60;99.52
58295;BME280;45705;55.592;37.460;2023-02-17T03:49:33;99853.66;;;-7.95;100.00
58295;BME280;45705;55.592;37.460;2023-02-17T03:51:59;99866.84;;;-7.95;100.00
58295;BME280;45705;55.592;37.460;2023-02-17T03:54:25;99859.31;;;-7.75;100.00
58295;BME280;45705;55.592;37.460;2023-02-17T03:56:51;99857.88;;;-7.85;100.00
58295;BME280;45705;55.592;37.460;2023-02-17T03:59:17;99858.91;;;-7.95;100.00
58295;BME280;45705;55.592;37.460;2023-02-17T04:01:43;99852.81;;;-7.95;100.00
58295;BME280;45705;55.592;37.460;2023-02-17T04:04:08;99848.63;;;-7.81;100.00
58295;BME280;45705;55.592;37.460;2023-02-17T04:06:34;99861.56;;;-8.03;100.00
58295;BME280;45705;55.592;37.460;2023-02-17T04:09:00;99860.91;;;-7.97;100.00
58295;BME280;45705;55.592;37.460;2023-02-17T04:11:26;99854.66;;;-8.04;100.00
58295;BME280;45705;55.592;37.460;2023-02-17T04:13:52;99865.53;;;-8.07;100.00
58295;BME280;45705;55.592;37.460;2023-02-17T04:16:17;99857.34;;;-8.28;100.00
58295;BME280;45705;55.592;37.460;2023-02-17T04:18:43;99862.63;;;-8.28;100.00
58295;BME280;45705;55.592;37.460;2023-02-17T04:21:09;99867.59;;;-8.25;100.00
58295;BME280;45705;55.592;37.460;2023-02-17T04:23:36;99858.03;;;-8.35;100.00
58295;BME280;45705;55.592;37.460;2023-02-17T04:26:03;99860.03;;;-8.37;100.00
58295;BME280;45705;55.592;37.460;2023-02-17T04:28:29;99855.72;;;-8.29;100.00
58295;BME280;45705;55.592;37.460;2023-02-17T04:30:56;99859.19;;;-8.29;100.00
58295;BME280;45705;55.592;37.460;2023-02-17T04:33:23;99867.72;;;-8.19;100.00
58295;BME280;45705;55.592;37.460;2023-02-17T04:35:48;99860.91;;;-7.97;100.00
58295;BME280;45705;55.592;37.460;2023-02-17T04:38:14;99854.31;;;-8.01;100.00
58295;BME280;45705;55.592;37.460;2023-02-17T04:40:41;99866.16;;;-7.88;100.00
58295;BME280;45705;55.592;37.460;2023-02-17T04:43:07;99868.59;;;-7.79;100.00
58295;BME280;45705;55.592;37.460;2023-02-17T04:45:34;99869.28;;;-7.85;100.00
58295;BME280;45705;55.592;37.460;2023-02-17T04:48:00;99872.41;;;-7.89;100.00
58295;BME280;45705;55.592;37.460;2023-02-17T04:50:26;99864.50;;;-7.89;100.00
58295;BME280;45705;55.592;37.460;2023-02-17T04:52:52;99876.94;;;-7.67;100.00
58295;BME280;45705;55.592;37.460;2023-02-17T04:55:18;99865.78;;;-7.77;100.00
58295;BME280;45705;55.592;37.460;2023-02-17T04:57:44;99867.13;;;-7.89;100.00
58295;BME280;45705;55.592;37.460;2023-02-17T05:00:10;99876.06;;;-7.90;100.00
58295;BME280;45705;55.592;37.460;2023-02-17T05:02:36;99871.41;;;-7.80;100.00
58295;BME280;45705;55.592;37.460;2023-02-17T05:05:02;99870.09;;;-7.84;100.00
58295;BME280;45705;55.592;37.460;2023-02-17T05:07:29;99869.69;;;-7.65;100.00
58295;BME280;45705;55.592;37.460;2023-02-17T05:09:55;99852.75;;;-7.47;100.00
58295;BME280;45705;55.592;37.460;2023-02-17T05:12:21;99867.72;;;-7.40;100.00
58295;BME280;45705;55.592;37.460;2023-02-17T05:14:47;99861.41;;;-7.30;100.00
58295;BME280;45705;55.592;37.460;2023-02-17T05:17:12;99855.91;;;-7.21;100.00
58295;BME280;45705;55.592;37.460;2023-02-17T05:19:38;99853.59;;;-7.24;100.00
58295;BME280;45705;55.592;37.460;2023-02-17T05:22:04;99855.47;;;-7.09;100.00
58295;BME280;45705;55.592;37.460;2023-02-17T05:24:30;99857.66;;;-7.13;100.00
58295;BME280;45705;55.592;37.460;2023-02-17T05:26:56;99866.97;;;-7.25;100.00
58295;BME280;45705;55.592;37.460;2023-02-17T05:29:22;99849.91;;;-7.15;100.00
58295;BME280;45705;55.592;37.460;2023-02-17T05:31:48;99865.59;;;-7.13;100.00
58295;BME280;45705;55.592;37.460;2023-02-17T05:34:14;99860.25;;;-7.05;100.00
58295;BME280;45705;55.592;37.460;2023-02-17T05:36:40;99855.72;;;-6.96;99.94
58295;BME280;45705;55.592;37.460;2023-02-17T05:39:06;99857.41;;;-6.80;100.00
58295;BME280;45705;55.592;37.460;2023-02-17T05:41:33;99863.63;;;-6.96;99.94
58295;BME280;45705;55.592;37.460;2023-02-17T05:43:59;99864.81;;;-6.76;99.04
58295;BME280;45705;55.592;37.460;2023-02-17T05:46:24;99840.72;;;-6.81;99.60
58295;BME280;45705;55.592;37.460;2023-02-17T05:48:50;99862.84;;;-6.59;98.85
58295;BME280;45705;55.592;37.460;2023-02-17T05:51:16;99862.34;;;-6.24;98.69
58295;BME280;45705;55.592;37.460;2023-02-17T05:53:42;99864.66;;;-5.70;94.61
58295;BME280;45705;55.592;37.460;2023-02-17T05:56:08;99858.09;;;-5.23;92.00
58295;BME280;45705;55.592;37.460;2023-02-17T05:58:34;99862.66;;;-4.95;88.64
58295;BME280;45705;55.592;37.460;2023-02-17T06:01:00;99862.41;;;-4.79;86.65
58295;BME280;45705;55.592;37.460;2023-02-17T06:03:27;99861.97;;;-4.82;86.25
58295;BME280;45705;55.592;37.460;2023-02-17T06:05:53;99871.84;;;-5.12;87.59
58295;BME280;45705;55.592;37.460;2023-02-17T06:08:18;99875.94;;;-4.17;86.21
58295;BME280;45705;55.592;37.460;2023-02-17T06:10:44;99872.94;;;-4.36;84.51
58295;BME280;45705;55.592;37.460;2023-02-17T06:13:10;99866.41;;;-4.40;85.01
58295;BME280;45705;55.592;37.460;2023-02-17T06:15:36;99878.75;;;-3.90;80.89
58295;BME280;45705;55.592;37.460;2023-02-17T06:18:02;99859.38;;;-4.47;82.84
58295;BME280;45705;55.592;37.460;2023-02-17T06:20:28;99877.03;;;-4.33;82.52
58295;BME280;45705;55.592;37.460;2023-02-17T06:22:53;99882.47;;;-4.69;84.70
58295;BME280;45705;55.592;37.460;2023-02-17T06:25:20;99891.03;;;-5.32;87.73
58295;BME280;45705;55.592;37.460;2023-02-17T06:27:45;99887.09;;;-5.36;89.21
58295;BME280;45705;55.592;37.460;2023-02-17T06:30:12;99880.25;;;-5.45;90.20
58295;BME280;45705;55.592;37.460;2023-02-17T06:32:38;99880.19;;;-5.52;91.30
58295;BME280;45705;55.592;37.460;2023-02-17T06:35:04;99876.56;;;-5.66;92.74
58295;BME280;45705;55.592;37.460;2023-02-17T06:37:29;99881.47;;;-5.63;92.41
58295;BME280;45705;55.592;37.460;2023-02-17T06:39:55;99860.84;;;-5.82;93.55
58295;BME280;45705;55.592;37.460;2023-02-17T06:42:21;99879.28;;;-5.74;94.47
58295;BME280;45705;55.592;37.460;2023-02-17T06:44:46;99881.00;;;-6.03;96.66
58295;BME280;45705;55.592;37.460;2023-02-17T06:47:12;99875.38;;;-5.78;96.83
58295;BME280;45705;55.592;37.460;2023-02-17T06:49:38;99883.34;;;-5.93;94.96
58295;BME280;45705;55.592;37.460;2023-02-17T06:52:03;99879.56;;;-5.84;96.03
58295;BME280;45705;55.592;37.460;2023-02-17T06:54:29;99859.94;;;-5.89;95.47
58295;BME280;45705;55.592;37.460;2023-02-17T06:56:55;99880.00;;;-5.50;94.58
58295;BME280;45705;55.592;37.460;2023-02-17T06:59:20;99874.09;;;-5.82;95.12
58295;BME280;45705;55.592;37.460;2023-02-17T07:01:46;99859.59;;;-5.86;96.65
58295;BME280;45705;55.592;37.460;2023-02-17T07:04:14;99878.75;;;-5.84;94.91
58295;BME280;45705;55.592;37.460;2023-02-17T07:06:39;99876.00;;;-5.76;94.69
58295;BME280;45705;55.592;37.460;2023-02-17T07:09:05;99876.59;;;-5.96;96.50
58295;BME280;45705;55.592;37.460;2023-02-17T07:11:31;99869.53;;;-5.74;94.64
58295;BME280;45705;55.592;37.460;2023-02-17T07:13:58;99867.25;;;-5.91;95.07
58295;BME280;45705;55.592;37.460;2023-02-17T07:16:23;99871.69;;;-5.99;94.50
58295;BME280;45705;55.592;37.460;2023-02-17T07:18:50;99864.53;;;-5.83;93.71
58295;BME280;45705;55.592;37.460;2023-02-17T07:21:15;99871.09;;;-5.79;93.00
58295;BME280;45705;55.592;37.460;2023-02-17T07:23:41;99865.22;;;-5.89;94.26
58295;BME280;45705;55.592;37.460;2023-02-17T07:26:09;99865.22;;;-5.75;93.98
58295;BME280;45705;55.592;37.460;2023-02-17T07:28:37;99859.53;;;-5.57;93.09
58295;BME280;45705;55.592;37.460;2023-02-17T07:31:06;99861.56;;;-5.22;92.22
58295;BME280;45705;55.592;37.460;2023-02-17T07:33:33;99862.91;;;-4.90;88.99
58295;BME280;45705;55.592;37.460;2023-02-17T07:35:59;99864.16;;;-4.64;87.21
58295;BME280;45705;55.592;37.460;2023-02-17T07:38:25;99863.78;;;-4.61;84.96
58295;BME280;45705;55.592;37.460;2023-02-17T07:40:50;99862.41;;;-4.79;84.25
58295;BME280;45705;55.592;37.460;2023-02-17T07:43:16;99862.50;;;-4.87;84.54
58295;BME280;45705;55.592;37.460;2023-02-17T07:45:43;99865.94;;;-4.93;84.41
58295;BME280;45705;55.592;37.460;2023-02-17T07:48:09;99863.03;;;-4.98;84.93
58295;BME280;45705;55.592;37.460;2023-02-17T07:50:35;99860.34;;;-5.20;86.04
58295;BME280;45705;55.592;37.460;2023-02-17T07:53:00;99865.16;;;-5.30;88.11
58295;BME280;45705;55.592;37.460;2023-02-17T07:55:26;99868.13;;;-5.55;88.58
58295;BME280;45705;55.592;37.460;2023-02-17T07:57:52;99859.97;;;-5.38;87.54
58295;BME280;45705;55.592;37.460;2023-02-17T08:00:18;99846.41;;;-5.65;89.08
58295;BME280;45705;55.592;37.460;2023-02-17T08:02:44;99858.69;;;-5.42;89.71
58295;BME280;45705;55.592;37.460;2023-02-17T08:05:10;99859.63;;;-5.50;88.92
58295;BME280;45705;55.592;37.460;2023-02-17T08:07:36;99863.72;;;-5.47;88.96
58295;BME280;45705;55.592;37.460;2023-02-17T08:10:02;99851.84;;;-5.51;90.26
58295;BME280;45705;55.592;37.460;2023-02-17T08:12:46;99864.44;;;-5.39;89.28
58295;BME280;45705;55.592;37.460;2023-02-17T08:15:32;99855.31;;;-5.36;89.07
58295;BME280;45705;55.592;37.460;2023-02-17T08:17:58;99849.84;;;-5.13;88.81
58295;BME280;45705;55.592;37.460;2023-02-17T08:20:25;99859.31;;;-5.04;88.37
58295;BME280;45705;55.592;37.460;2023-02-17T08:22:51;99851.88;;;-4.65;86.86
58295;BME280;45705;55.592;37.460;2023-02-17T08:25:17;99849.66;;;-4.90;85.36
58295;BME280;45705;55.592;37.460;2023-02-17T08:27:44;99850.25;;;-4.66;85.03
58295;BME280;45705;55.592;37.460;2023-02-17T08:30:10;99850.91;;;-4.86;87.10
58295;BME280;45705;55.592;37.460;2023-02-17T08:32:35;99841.44;;;-4.95;87.30
58295;BME280;45705;55.592;37.460;2023-02-17T08:35:01;99844.72;;;-4.93;87.91
58295;BME280;45705;55.592;37.460;2023-02-17T08:37:28;99857.97;;;-4.93;86.85
58295;BME280;45705;55.592;37.460;2023-02-17T08:39:56;99857.66;;;-5.05;87.04
58295;BME280;45705;55.592;37.460;2023-02-17T08:42:25;99850.19;;;-4.95;87.94
58295;BME280;45705;55.592;37.460;2023-02-17T08:44:51;99849.50;;;-4.82;87.40
58295;BME280;45705;55.592;37.460;2023-02-17T08:47:17;99839.03;;;-4.90;87.78
58295;BME280;45705;55.592;37.460;2023-02-17T08:49:43;99844.19;;;-4.60;87.59
58295;BME280;45705;55.592;37.460;2023-02-17T08:52:08;99836.63;;;-4.85;82.17
58295;BME280;45705;55.592;37.460;2023-02-17T08:54:34;99836.56;;;-4.91;82.71
58295;BME280;45705;55.592;37.460;2023-02-17T08:57:00;99847.88;;;-5.04;82.90
58295;BME280;45705;55.592;37.460;2023-02-17T08:59:25;99842.56;;;-5.04;82.42
58295;BME280;45705;55.592;37.460;2023-02-17T09:01:51;99840.16;;;-4.99;81.42
58295;BME280;45705;55.592;37.460;2023-02-17T09:04:17;99841.94;;;-4.63;79.92
58295;BME280;45705;55.592;37.460;2023-02-17T09:06:46;99848.41;;;-4.09;78.00
58295;BME280;45705;55.592;37.460;2023-02-17T09:09:15;99846.00;;;-4.32;78.42
58295;BME280;45705;55.592;37.460;2023-02-17T09:11:41;99850.47;;;-4.40;76.44
58295;BME280;45705;55.592;37.460;2023-02-17T09:14:07;99851.94;;;-4.30;76.20
58295;BME280;45705;55.592;37.460;2023-02-17T09:16:33;99854.31;;;-4.14;76.04
58295;BME280;45705;55.592;37.460;2023-02-17T09:18:59;99853.91;;;-4.67;76.47
58295;BME280;45705;55.592;37.460;2023-02-17T09:21:25;99855.31;;;-4.93;78.37
58295;BME280;45705;55.592;37.460;2023-02-17T09:23:50;99846.22;;;-4.84;78.32
58295;BME280;45705;55.592;37.460;2023-02-17T09:26:18;99840.47;;;-4.38;77.55
58295;BME280;45705;55.592;37.460;2023-02-17T09:28:45;99843.13;;;-4.38;78.63
58295;BME280;45705;55.592;37.460;2023-02-17T09:31:14;99825.94;;;-4.42;77.04
58295;BME280;45705;55.592;37.460;2023-02-17T09:33:40;99830.09;;;-4.61;76.28
58295;BME280;45705;55.592;37.460;2023-02-17T09:36:08;99842.91;;;-4.64;78.45
58295;BME280;45705;55.592;37.460;2023-02-17T09:38:37;99830.06;;;-4.32;77.55
58295;BME280;45705;55.592;37.460;2023-02-17T09:43:42;99831.63;;;-4.45;78.34
58295;BME280;45705;55.592;37.460;2023-02-17T09:46:13;99822.28;;;-4.41;78.63
58295;BME280;45705;55.592;37.460;2023-02-17T09:48:41;99829.50;;;-4.56;79.52
58295;BME280;45705;55.592;37.460;2023-02-17T09:51:32;99816.97;;;-4.41;78.85
58295;BME280;45705;55.592;37.460;2023-02-17T09:54:07;99824.94;;;-4.06;78.30
58295;BME280;45705;55.592;37.460;2023-02-17T09:56:40;99827.03;;;-3.94;78.54
58295;BME280;45705;55.592;37.460;2023-02-17T09:59:17;99814.94;;;-4.39;79.31
58295;BME280;45705;55.592;37.460;2023-02-17T10:01:45;99814.63;;;-3.87;79.08
58295;BME280;45705;55.592;37.460;2023-02-17T10:04:15;99816.81;;;-4.32;78.51
58295;BME280;45705;55.592;37.460;2023-02-17T10:06:45;99815.34;;;-4.42;78.67
58295;BME280;45705;55.592;37.460;2023-02-17T10:09:32;99818.69;;;-3.85;77.37
58295;BME280;45705;55.592;37.460;2023-02-17T10:12:05;99817.44;;;-4.30;78.37
58295;BME280;45705;55.592;37.460;2023-02-17T10:14:56;99813.47;;;-4.69;80.78
58295;BME280;45705;55.592;37.460;2023-02-17T10:17:33;99802.59;;;-4.53;80.61
58295;BME280;45705;55.592;37.460;2023-02-17T10:22:30;99803.78;;;-4.56;79.67
58295;BME280;45705;55.592;37.460;2023-02-17T10:24:56;99814.84;;;-4.52;79.46
58295;BME280;45705;55.592;37.460;2023-02-17T10:27:36;99808.47;;;-4.29;79.10
58295;BME280;45705;55.592;37.460;2023-02-17T10:35:52;99793.28;;;-4.70;82.00
58295;BME280;45705;55.592;37.460;2023-02-17T10:38:43;99793.38;;;-4.57;81.50
58295;BME280;45705;55.592;37.460;2023-02-17T10:41:13;99783.47;;;-4.42;80.53
58295;BME280;45705;55.592;37.460;2023-02-17T10:43:41;99783.13;;;-4.32;80.71
58295;BME280;45705;55.592;37.460;2023-02-17T10:46:11;99782.97;;;-4.24;78.89
58295;BME280;45705;55.592;37.460;2023-02-17T10:48:49;99774.34;;;-3.84;77.41
58295;BME280;45705;55.592;37.460;2023-02-17T10:51:18;99767.63;;;-4.28;77.46
58295;BME280;45705;55.592;37.460;2023-02-17T10:53:54;99777.47;;;-4.22;77.43
58295;BME280;45705;55.592;37.460;2023-02-17T10:56:27;99770.06;;;-4.27;77.95
58295;BME280;45705;55.592;37.460;2023-02-17T10:59:01;99777.84;;;-4.25;78.49
58295;BME280;45705;55.592;37.460;2023-02-17T11:01:31;99771.66;;;-4.32;78.54
58295;BME280;45705;55.592;37.460;2023-02-17T11:04:06;99766.38;;;-4.32;79.87
58295;BME280;45705;55.592;37.460;2023-02-17T11:06:36;99763.75;;;-3.78;77.62
58295;BME280;45705;55.592;37.460;2023-02-17T11:11:52;99763.34;;;-3.81;76.96
58295;BME280;45705;55.592;37.460;2023-02-17T11:14:27;99760.03;;;-3.90;77.83
58295;BME280;45705;55.592;37.460;2023-02-17T11:17:02;99760.19;;;-3.98;79.05
58295;BME280;45705;55.592;37.460;2023-02-17T11:19:31;99759.03;;;-3.89;79.44
58295;BME280;45705;55.592;37.460;2023-02-17T11:22:02;99766.50;;;-4.06;78.85
58295;BME280;45705;55.592;37.460;2023-02-17T11:24:32;99758.72;;;-4.14;79.66
58295;BME280;45705;55.592;37.460;2023-02-17T11:27:09;99761.31;;;-4.21;78.96
58295;BME280;45705;55.592;37.460;2023-02-17T11:29:36;99752.28;;;-4.33;79.65
58295;BME280;45705;55.592;37.460;2023-02-17T11:34:30;99706.97;;;-3.70;78.48
58295;BME280;45705;55.592;37.460;2023-02-17T11:39:51;99744.22;;;-4.11;78.67
58295;BME280;45705;55.592;37.460;2023-02-17T11:42:21;99740.78;;;-3.99;79.05
58295;BME280;45705;55.592;37.460;2023-02-17T11:44:47;99739.00;;;-3.91;79.15
58295;BME280;45705;55.592;37.460;2023-02-17T11:52:44;99732.25;;;-3.87;77.68
58295;BME280;45705;55.592;37.460;2023-02-17T12:06:28;99729.69;;;-4.22;79.46
58295;BME280;45705;55.592;37.460;2023-02-17T12:20:06;99715.47;;;-3.94;78.68
58295;BME280;45705;55.592;37.460;2023-02-17T12:25:46;99717.41;;;-4.23;78.40
58295;BME280;45705;55.592;37.460;2023-02-17T12:28:32;99727.50;;;-4.47;79.91
58295;BME280;45705;55.592;37.460;2023-02-17T12:36:17;99722.72;;;-4.23;79.55
58295;BME280;45705;55.592;37.460;2023-02-17T12:38:47;99721.31;;;-3.44;76.10
58295;BME280;45705;55.592;37.460;2023-02-17T12:43:46;99714.75;;;-3.48;74.83
58295;BME280;45705;55.592;37.460;2023-02-17T12:46:47;99717.91;;;-4.00;75.17
58295;BME280;45705;55.592;37.460;2023-02-17T12:49:25;99714.63;;;-4.08;77.08
58295;BME280;45705;55.592;37.460;2023-02-17T12:52:07;99717.75;;;-3.91;78.18
58295;BME280;45705;55.592;37.460;2023-02-17T12:54:40;99717.06;;;-4.07;77.39
58295;BME280;45705;55.592;37.460;2023-02-17T12:57:14;99710.41;;;-4.38;78.76
58295;BME280;45705;55.592;37.460;2023-02-17T12:59:50;99714.94;;;-4.31;79.45
58295;BME280;45705;55.592;37.460;2023-02-17T13:02:19;99710.06;;;-4.21;79.89
58295;BME280;45705;55.592;37.460;2023-02-17T13:04:49;99714.22;;;-4.47;80.72
58295;BME280;45705;55.592;37.460;2023-02-17T13:07:38;99707.19;;;-4.26;79.57
58295;BME280;45705;55.592;37.460;2023-02-17T13:10:28;99709.56;;;-4.45;80.63
58295;BME280;45705;55.592;37.460;2023-02-17T13:13:06;99705.91;;;-4.37;81.33
58295;BME280;45705;55.592;37.460;2023-02-17T13:15:41;99709.63;;;-4.31;79.75
58295;BME280;45705;55.592;37.460;2023-02-17T13:18:28;99699.84;;;-4.24;80.27
58295;BME280;45705;55.592;37.460;2023-02-17T13:21:15;99706.91;;;-4.45;81.34
58295;BME280;45705;55.592;37.460;2023-02-17T13:23:43;99703.06;;;-4.36;81.07
58295;BME280;45705;55.592;37.460;2023-02-17T13:28:45;99699.47;;;-4.14;79.43
58295;BME280;45705;55.592;37.460;2023-02-17T13:31:16;99698.31;;;-3.92;78.30
58295;BME280;45705;55.592;37.460;2023-02-17T13:34:09;99699.16;;;-3.91;77.36
58295;BME280;45705;55.592;37.460;2023-02-17T13:36:36;99697.47;;;-4.06;78.98
58295;BME280;45705;55.592;37.460;2023-02-17T13:39:27;99699.88;;;-4.18;78.66
58295;BME280;45705;55.592;37.460;2023-02-17T13:41:49;99697.88;;;-3.96;78.12
58295;BME280;45705;55.592;37.460;2023-02-17T13:46:51;99686.72;;;-4.39;79.86
58295;BME280;45705;55.592;37.460;2023-02-17T13:49:23;99687.47;;;-4.52;81.51
58295;BME280;45705;55.592;37.460;2023-02-17T13:51:50;99682.94;;;-4.10;80.24
58295;BME280;45705;55.592;37.460;2023-02-17T13:54:20;99684.69;;;-4.30;80.25
58295;BME280;45705;55.592;37.460;2023-02-17T13:56:50;99677.31;;;-4.42;80.33
58295;BME280;45705;55.592;37.460;2023-02-17T13:59:23;99680.50;;;-4.05;79.17
58295;BME280;45705;55.592;37.460;2023-02-17T14:01:50;99688.81;;;-4.21;80.20
58295;BME280;45705;55.592;37.460;2023-02-17T14:04:28;99676.09;;;-4.32;80.50
58295;BME280;45705;55.592;37.460;2023-02-17T14:06:59;99673.63;;;-4.47;81.12
58295;BME280;45705;55.592;37.460;2023-02-17T14:09:28;99669.56;;;-4.37;79.95
58295;BME280;45705;55.592;37.460;2023-02-17T14:11:55;99675.50;;;-4.35;79.33
58295;BME280;45705;55.592;37.460;2023-02-17T14:14:27;99670.03;;;-4.26;79.06
58295;BME280;45705;55.592;37.460;2023-02-17T14:17:03;99672.88;;;-4.21;79.63
58295;BME280;45705;55.592;37.460;2023-02-17T14:19:41;99673.63;;;-4.41;78.83
58295;BME280;45705;55.592;37.460;2023-02-17T14:25:13;99671.59;;;-4.45;78.82
58295;BME280;45705;55.592;37.460;2023-02-17T14:27:50;99679.75;;;-4.82;79.81
58295;BME280;45705;55.592;37.460;2023-02-17T14:30:48;99667.72;;;-4.78;81.62
58295;BME280;45705;55.592;37.460;2023-02-17T14:36:08;99679.75;;;-4.82;82.48
58295;BME280;45705;55.592;37.460;2023-02-17T14:38:40;99662.47;;;-4.71;82.00